createdAt,value
2019-02-04T00:01:33.923Z,0.26
2019-02-04T00:04:02.544Z,0.21
2019-02-04T00:06:31.142Z,0.14
2019-02-04T00:08:59.727Z,0.00
2019-02-04T00:11:28.344Z,-0.21
2019-02-04T00:16:40.937Z,-0.32
2019-02-04T00:19:04.429Z,-0.39
2019-02-04T00:21:33.044Z,-0.40
2019-02-04T00:24:01.654Z,-0.39
2019-02-04T00:26:30.269Z,-0.47
2019-02-04T00:28:58.874Z,-0.50
2019-02-04T00:31:27.480Z,-0.55
2019-02-04T00:33:56.078Z,-0.62
2019-02-04T00:36:24.702Z,-0.71
2019-02-04T00:38:53.307Z,-0.74
2019-02-04T00:41:21.920Z,-0.70
2019-02-04T00:46:29.378Z,-0.85
2019-02-04T00:48:58.063Z,-0.81
2019-02-04T00:51:26.681Z,-0.81
2019-02-04T00:56:34.166Z,-0.93
2019-02-04T00:59:02.767Z,-0.90
2019-02-04T01:01:31.704Z,-0.84
2019-02-04T01:04:00.301Z,-0.95
2019-02-04T01:06:28.899Z,-0.95
2019-02-04T01:08:57.888Z,-0.85
2019-02-04T01:11:26.497Z,-0.89
2019-02-04T01:13:55.434Z,-0.95
2019-02-04T01:16:24.027Z,-0.93
2019-02-04T01:18:52.645Z,-1.12
2019-02-04T01:21:21.303Z,-1.20
2019-02-04T01:23:50.270Z,-1.13
2019-02-04T01:26:18.857Z,-1.07
2019-02-04T01:28:47.471Z,-1.16
2019-02-04T01:31:16.065Z,-1.24
2019-02-04T01:33:44.676Z,-1.28
2019-02-04T01:36:13.591Z,-1.16
2019-02-04T01:38:42.180Z,-1.30
2019-02-04T01:41:10.777Z,-1.35
2019-02-04T01:43:39.393Z,-1.30
2019-02-04T01:46:07.996Z,-1.30
2019-02-04T01:48:36.629Z,-1.18
2019-02-04T01:51:05.591Z,-0.95
2019-02-04T01:53:34.198Z,-0.94
2019-02-04T01:56:03.163Z,-0.72
2019-02-04T01:58:31.773Z,-0.88
2019-02-04T02:01:00.379Z,-0.92
2019-02-04T02:03:28.983Z,-0.90
2019-02-04T02:05:57.573Z,-0.91
2019-02-04T02:08:26.169Z,-0.84
2019-02-04T02:10:55.167Z,-0.91
2019-02-04T02:13:24.079Z,-0.90
2019-02-04T02:15:52.683Z,-0.89
2019-02-04T02:18:21.699Z,-0.86
2019-02-04T02:20:50.292Z,-0.89
2019-02-04T02:23:18.912Z,-0.89
2019-02-04T02:25:47.520Z,-0.85
2019-02-04T02:28:16.129Z,-0.89
2019-02-04T02:30:45.047Z,-0.97
2019-02-04T02:33:13.669Z,-0.95
2019-02-04T02:35:42.256Z,-1.07
2019-02-04T02:38:10.890Z,-0.98
2019-02-04T02:40:39.500Z,-1.00
2019-02-04T02:43:08.119Z,-1.04
2019-02-04T02:45:36.722Z,-1.10
2019-02-04T02:48:05.329Z,-1.00
2019-02-04T02:50:33.946Z,-1.07
2019-02-04T02:53:02.888Z,-1.09
2019-02-04T02:55:31.781Z,-1.22
2019-02-04T02:58:00.390Z,-1.10
2019-02-04T03:00:29.008Z,-1.20
2019-02-04T03:02:57.641Z,-1.18
2019-02-04T03:05:26.624Z,-1.23
2019-02-04T03:07:55.247Z,-1.22
2019-02-04T03:10:23.888Z,-1.29
2019-02-04T03:12:52.508Z,-1.30
2019-02-04T03:15:21.454Z,-1.16
2019-02-04T03:17:52.338Z,-1.12
2019-02-04T03:20:19.032Z,-1.18
2019-02-04T03:22:47.676Z,-1.15
2019-02-04T03:25:16.291Z,-1.12
2019-02-04T03:27:44.950Z,-1.27
2019-02-04T03:30:28.828Z,-1.30
2019-02-04T03:32:57.449Z,-1.35
2019-02-04T03:35:26.338Z,-1.43
2019-02-04T03:37:54.963Z,-1.33
2019-02-04T03:40:26.696Z,-1.25
2019-02-04T03:42:55.438Z,-1.26
2019-02-04T03:45:24.052Z,-1.26
2019-02-04T03:48:04.289Z,-1.33
2019-02-04T03:50:21.281Z,-1.27
2019-02-04T03:52:49.916Z,-1.34
2019-02-04T03:55:18.553Z,-1.28
2019-02-04T03:57:47.169Z,-1.23
2019-02-04T04:02:57.371Z,-1.29
2019-02-04T04:05:25.990Z,-1.34
2019-02-04T04:07:54.691Z,-1.25
2019-02-04T04:10:23.329Z,-1.21
2019-02-04T04:12:52.511Z,-1.23
2019-02-04T04:15:21.146Z,-1.24
2019-02-04T04:17:49.749Z,-1.32
2019-02-04T04:20:18.664Z,-1.30
2019-02-04T04:22:47.661Z,-1.35
2019-02-04T04:25:16.296Z,-1.42
2019-02-04T04:27:45.236Z,-1.41
2019-02-04T04:32:55.740Z,-1.45
2019-02-04T04:35:24.598Z,-1.46
2019-02-04T04:37:53.230Z,-1.47
2019-02-04T04:40:21.847Z,-1.42
2019-02-04T04:42:50.451Z,-1.35
2019-02-04T04:45:21.869Z,-1.26
2019-02-04T04:47:50.791Z,-1.28
2019-02-04T04:50:19.387Z,-1.28
2019-02-04T04:52:48.028Z,-1.31
2019-02-04T04:55:19.393Z,-1.29
2019-02-04T04:57:48.004Z,-1.28
2019-02-04T05:00:28.936Z,-1.34
2019-02-04T05:02:57.565Z,-1.34
2019-02-04T05:05:26.509Z,-1.28
2019-02-04T05:07:55.409Z,-1.33
2019-02-04T05:10:24.042Z,-1.35
2019-02-04T05:12:52.694Z,-1.30
2019-02-04T05:17:59.845Z,-1.27
2019-02-04T05:20:28.479Z,-1.18
2019-02-04T05:22:57.113Z,-1.23
2019-02-04T05:25:25.730Z,-1.24
2019-02-04T05:27:54.322Z,-1.15
2019-02-04T05:30:22.979Z,-1.13
2019-02-04T05:32:51.603Z,-1.14
2019-02-04T05:35:20.550Z,-1.06
2019-02-04T05:37:49.151Z,-1.03
2019-02-04T05:40:18.063Z,-1.03
2019-02-04T05:42:46.664Z,-0.95
2019-02-04T05:45:15.333Z,-1.07
2019-02-04T05:47:43.919Z,-0.98
2019-02-04T05:50:17.258Z,-0.94
2019-02-04T05:52:44.340Z,-0.94
2019-02-04T05:55:13.328Z,-0.94
2019-02-04T05:57:42.281Z,-0.93
2019-02-04T06:00:11.276Z,-0.93
2019-02-04T06:02:39.887Z,-0.95
2019-02-04T06:05:08.534Z,-0.86
2019-02-04T06:07:37.137Z,-0.86
2019-02-04T06:10:06.117Z,-0.91
2019-02-04T06:12:35.130Z,-0.96
2019-02-04T06:15:03.350Z,-0.92
2019-02-04T06:17:31.942Z,-0.95
2019-02-04T06:20:02.920Z,-0.83
2019-02-04T06:22:29.543Z,-0.82
2019-02-04T06:24:58.193Z,-0.79
2019-02-04T06:30:05.692Z,-0.80
2019-02-04T06:32:34.817Z,-0.68
2019-02-04T06:35:03.235Z,-0.71
2019-02-04T06:37:31.832Z,-0.82
2019-02-04T06:40:00.440Z,-0.77
2019-02-04T06:42:30.094Z,-0.64
2019-02-04T06:44:58.682Z,-0.73
2019-02-04T06:47:27.306Z,-0.77
2019-02-04T06:49:55.908Z,-0.71
2019-02-04T06:52:24.798Z,-0.80
2019-02-04T06:54:53.433Z,-0.80
2019-02-04T06:57:22.373Z,-0.90
2019-02-04T06:59:51.038Z,-0.83
2019-02-04T07:02:19.942Z,-0.96
2019-02-04T07:04:48.561Z,-0.99
2019-02-04T07:07:17.192Z,-0.97
2019-02-04T07:09:45.789Z,-1.04
2019-02-04T07:12:14.382Z,-1.08
2019-02-04T07:14:43.364Z,-1.07
2019-02-04T07:17:11.976Z,-1.11
2019-02-04T07:19:40.593Z,-1.12
2019-02-04T07:22:09.189Z,-1.10
2019-02-04T07:24:42.808Z,-1.09
2019-02-04T07:27:06.991Z,-1.10
2019-02-04T07:29:35.654Z,-0.96
2019-02-04T07:32:04.264Z,-0.93
2019-02-04T07:34:32.884Z,-0.85
2019-02-04T07:37:01.496Z,-0.65
2019-02-04T07:39:30.111Z,-0.51
2019-02-04T07:41:58.747Z,-0.59
2019-02-04T07:44:27.677Z,-0.74
2019-02-04T07:46:56.322Z,-0.75
2019-02-04T07:49:34.744Z,-0.76
2019-02-04T07:51:53.523Z,-0.77
2019-02-04T07:54:22.409Z,-0.76
2019-02-04T07:56:51.301Z,-0.65
2019-02-04T07:59:19.908Z,-0.65
2019-02-04T08:01:48.512Z,-0.51
2019-02-04T08:04:17.451Z,-0.48
2019-02-04T08:06:46.335Z,-0.40
2019-02-04T08:09:14.936Z,-0.26
2019-02-04T08:11:43.913Z,-0.20
2019-02-04T08:14:12.492Z,-0.17
2019-02-04T08:16:41.106Z,-0.11
2019-02-04T08:19:10.069Z,-0.04
2019-02-04T08:21:38.670Z,0.09
2019-02-04T08:24:07.279Z,0.07
2019-02-04T08:26:35.892Z,0.11
2019-02-04T08:29:04.494Z,0.22
2019-02-04T08:31:33.129Z,0.26
2019-02-04T08:34:01.765Z,0.38
2019-02-04T08:36:30.345Z,0.46
2019-02-04T08:38:58.955Z,0.56
2019-02-04T08:41:27.566Z,0.64
2019-02-04T08:43:56.151Z,0.73
2019-02-04T08:46:24.781Z,0.85
2019-02-04T08:48:53.378Z,0.92
2019-02-04T08:51:22.013Z,1.03
2019-02-04T08:53:50.596Z,1.15
2019-02-04T08:56:19.209Z,1.21
2019-02-04T08:58:47.900Z,1.28
2019-02-04T09:01:16.507Z,1.37
2019-02-04T09:03:45.499Z,1.49
2019-02-04T09:06:14.441Z,1.54
2019-02-04T09:08:43.334Z,1.52
2019-02-04T09:11:12.325Z,1.60
2019-02-04T09:13:40.922Z,1.64
2019-02-04T09:16:09.898Z,1.73
2019-02-04T09:18:44.799Z,1.77
2019-02-04T09:21:07.103Z,1.87
2019-02-04T09:23:35.735Z,1.93
2019-02-04T09:26:04.372Z,1.98
2019-02-04T09:28:32.995Z,2.07
2019-02-04T09:31:01.626Z,2.17
2019-02-04T09:33:30.581Z,2.24
2019-02-04T09:36:19.554Z,2.28
2019-02-04T09:38:48.432Z,2.36
2019-02-04T09:41:17.039Z,2.36
2019-02-04T09:43:45.643Z,2.43
2019-02-04T09:46:14.265Z,2.55
2019-02-04T09:48:43.153Z,2.60
2019-02-04T09:51:11.785Z,2.61
2019-02-04T09:53:40.381Z,2.70
2019-02-04T09:56:09.022Z,2.79
2019-02-04T09:58:37.608Z,2.89
2019-02-04T10:01:06.609Z,2.95
2019-02-04T10:03:35.213Z,2.96
2019-02-04T10:06:04.103Z,2.99
2019-02-04T10:08:33.049Z,3.07
2019-02-04T10:11:01.702Z,3.07
2019-02-04T10:13:30.334Z,3.13
2019-02-04T10:15:58.990Z,3.10
2019-02-04T10:18:27.561Z,3.18
2019-02-04T10:20:56.234Z,3.17
2019-02-04T10:23:24.828Z,3.24
2019-02-04T10:25:53.448Z,3.33
2019-02-04T10:28:22.048Z,3.21
2019-02-04T10:30:51.022Z,3.25
2019-02-04T10:33:20.233Z,3.36
2019-02-04T10:35:48.593Z,3.42
2019-02-04T10:40:51.602Z,3.48
2019-02-04T10:43:20.214Z,3.56
2019-02-04T10:45:48.836Z,3.55
2019-02-04T10:48:17.527Z,3.61
2019-02-04T10:50:47.264Z,3.61
2019-02-04T10:53:14.767Z,3.63
2019-02-04T10:55:43.705Z,3.65
2019-02-04T10:58:12.666Z,3.79
2019-02-04T11:00:41.657Z,3.86
2019-02-04T11:03:10.311Z,3.86
2019-02-04T11:05:38.913Z,3.86
2019-02-04T11:08:07.552Z,3.88
2019-02-04T11:10:36.209Z,3.92
2019-02-04T11:13:04.957Z,3.94
2019-02-04T11:15:33.417Z,3.92
2019-02-04T11:18:02.087Z,3.87
2019-02-04T11:20:30.716Z,3.90
2019-02-04T11:22:59.351Z,3.93
2019-02-04T11:25:28.289Z,3.96
2019-02-04T11:27:57.277Z,3.86
2019-02-04T11:30:29.028Z,3.87
2019-02-04T11:32:57.655Z,3.90
2019-02-04T11:35:26.267Z,3.91
2019-02-04T11:37:54.925Z,4.01
2019-02-04T11:43:01.767Z,3.96
2019-02-04T11:45:30.666Z,3.92
2019-02-04T11:47:59.687Z,3.94
2019-02-04T11:50:28.500Z,3.97
2019-02-04T11:52:57.126Z,3.98
2019-02-04T11:55:25.826Z,3.98
2019-02-04T11:57:54.705Z,3.96
2019-02-04T12:03:01.910Z,3.95
2019-02-04T12:05:30.889Z,4.06
2019-02-04T12:07:59.495Z,4.00
2019-02-04T12:10:31.215Z,3.94
2019-02-04T12:12:59.850Z,3.90
2019-02-04T12:15:28.787Z,3.92
2019-02-04T12:17:57.813Z,3.95
2019-02-04T12:20:26.674Z,3.94
2019-02-04T12:22:55.566Z,3.95
2019-02-04T12:25:27.320Z,3.97
2019-02-04T12:27:55.951Z,3.95
2019-02-04T12:33:09.325Z,4.01
2019-02-04T12:35:37.928Z,4.08
2019-02-04T12:38:06.917Z,3.99
2019-02-04T12:40:35.548Z,4.11
2019-02-04T12:43:04.130Z,4.13
2019-02-04T12:48:14.391Z,4.10
2019-02-04T12:50:42.982Z,4.20
2019-02-04T12:53:11.931Z,4.12
2019-02-04T12:55:40.531Z,4.12
2019-02-04T12:58:09.489Z,4.08
2019-02-04T13:00:38.519Z,4.06
2019-02-04T13:03:07.378Z,4.10
2019-02-04T13:05:41.976Z,4.11
2019-02-04T13:08:10.621Z,4.04
2019-02-04T13:10:39.259Z,4.12
2019-02-04T13:13:08.354Z,4.14
2019-02-04T13:15:36.973Z,4.19
2019-02-04T13:18:05.608Z,4.26
2019-02-04T13:20:34.230Z,4.15
2019-02-04T13:23:02.874Z,4.16
2019-02-04T13:25:31.779Z,4.12
2019-02-04T13:28:00.403Z,4.17
2019-02-04T13:30:29.357Z,4.13
2019-02-04T13:32:57.979Z,4.05
2019-02-04T13:35:26.923Z,3.98
2019-02-04T13:37:55.529Z,3.87
2019-02-04T13:40:30.362Z,3.98
2019-02-04T13:42:58.968Z,3.92
2019-02-04T13:45:27.892Z,3.86
2019-02-04T13:47:56.892Z,3.86
2019-02-04T13:50:25.518Z,3.80
2019-02-04T13:52:54.523Z,3.84
2019-02-04T13:55:23.144Z,3.78
2019-02-04T13:57:51.760Z,3.74
2019-02-04T14:00:20.727Z,3.59
2019-02-04T14:02:58.896Z,3.51
2019-02-04T14:05:17.981Z,3.58
2019-02-04T14:07:46.617Z,3.61
2019-02-04T14:12:53.918Z,3.54
2019-02-04T14:15:22.532Z,3.43
2019-02-04T14:17:51.196Z,3.53
2019-02-04T14:20:20.126Z,3.48
2019-02-04T14:22:49.109Z,3.50
2019-02-04T14:25:17.724Z,3.34
2019-02-04T14:27:46.631Z,3.25
2019-02-04T14:30:15.543Z,3.22
2019-02-04T14:32:44.140Z,3.23
2019-02-04T14:35:13.045Z,3.22
2019-02-04T14:37:44.941Z,3.25
2019-02-04T14:40:18.738Z,3.21
2019-02-04T14:42:39.253Z,3.16
2019-02-04T14:57:11.553Z,3.01
2019-02-04T14:59:40.195Z,3.04
2019-02-04T15:02:11.781Z,2.92
2019-02-04T15:04:55.644Z,2.93
2019-02-04T15:07:33.228Z,2.86
2019-02-04T15:10:17.128Z,2.96
2019-02-04T15:13:17.172Z,3.06
2019-02-04T15:15:54.828Z,2.78
2019-02-04T15:18:32.561Z,2.73
2019-02-04T15:21:13.248Z,2.66
2019-02-04T15:26:35.506Z,2.79
2019-02-04T15:29:04.185Z,2.66
2019-02-04T15:31:32.820Z,2.68
2019-02-04T15:40:32.172Z,2.42
2019-02-04T15:43:16.667Z,2.30
2019-02-04T15:45:57.155Z,2.21
2019-02-04T15:48:25.792Z,2.17
2019-02-04T15:51:10.041Z,2.06
2019-02-04T15:53:38.658Z,2.23
2019-02-04T15:56:07.299Z,2.08
2019-02-04T15:58:35.907Z,1.91
2019-02-04T16:01:04.936Z,2.02
2019-02-04T16:03:33.446Z,2.27
2019-02-04T16:06:02.334Z,2.02
2019-02-04T16:08:30.916Z,1.77
2019-02-04T16:10:59.539Z,1.91
2019-02-04T16:13:28.594Z,1.80
2019-02-04T16:15:57.222Z,1.70
2019-02-04T16:18:26.163Z,1.94
2019-02-04T16:20:54.768Z,1.93
2019-02-04T16:23:23.738Z,1.79
2019-02-04T16:25:52.342Z,1.80
2019-02-04T16:28:20.956Z,1.82
2019-02-04T16:30:49.892Z,1.69
2019-02-04T16:33:18.505Z,1.53
2019-02-04T16:35:47.103Z,1.59
2019-02-04T16:38:15.716Z,1.49
2019-02-04T16:40:44.315Z,1.34
2019-02-04T16:43:12.920Z,1.31
2019-02-04T16:45:41.533Z,1.22
2019-02-04T16:48:10.157Z,1.09
2019-02-04T16:50:39.157Z,1.18
2019-02-04T16:53:10.750Z,1.06
2019-02-04T16:55:36.731Z,1.33
2019-02-04T16:58:05.354Z,1.30
2019-02-04T17:00:34.449Z,1.26
2019-02-04T17:03:03.410Z,1.21
2019-02-04T17:05:32.499Z,1.27
2019-02-04T17:08:01.617Z,1.28
2019-02-04T17:10:30.485Z,1.05
2019-02-04T17:12:59.466Z,1.11
2019-02-04T17:15:28.456Z,1.06
2019-02-04T17:17:57.080Z,1.03
2019-02-04T17:20:25.985Z,1.05
2019-02-04T17:22:54.659Z,1.12
2019-02-04T17:25:23.299Z,1.05
2019-02-04T17:27:51.916Z,0.93
2019-02-04T17:30:23.339Z,1.06
2019-02-04T17:32:52.309Z,1.03
2019-02-04T17:35:20.941Z,1.14
2019-02-04T17:37:49.990Z,1.17
2019-02-04T17:40:18.646Z,1.17
2019-02-04T17:42:47.566Z,1.12
2019-02-04T17:45:16.209Z,1.08
2019-02-04T17:47:45.142Z,1.06
2019-02-04T17:50:17.193Z,1.14
2019-02-04T17:52:45.894Z,1.11
2019-02-04T17:55:14.498Z,1.09
2019-02-04T17:57:43.124Z,1.09
2019-02-04T18:00:20.910Z,1.14
2019-02-04T18:02:49.671Z,1.17
2019-02-04T18:05:18.247Z,1.23
2019-02-04T18:07:47.213Z,1.23
2019-02-04T18:10:15.892Z,1.11
2019-02-04T18:12:44.496Z,1.09
2019-02-04T18:15:13.457Z,1.14
2019-02-04T18:17:42.049Z,1.10
2019-02-04T18:20:11.026Z,1.06
2019-02-04T18:22:39.617Z,0.98
2019-02-04T18:25:08.334Z,1.06
2019-02-04T18:27:37.023Z,1.05
2019-02-04T18:30:05.893Z,0.97
2019-02-04T18:32:34.858Z,0.86
2019-02-04T18:35:03.847Z,0.87
2019-02-04T18:37:33.035Z,0.76
2019-02-04T18:40:01.721Z,0.77
2019-02-04T18:42:30.516Z,0.85
2019-02-04T18:44:59.198Z,0.80
2019-02-04T18:50:09.132Z,0.81
2019-02-04T18:52:37.783Z,0.68
2019-02-04T18:55:06.734Z,0.62
2019-02-04T18:57:35.623Z,0.64
2019-02-04T19:00:04.275Z,0.71
2019-02-04T19:02:32.885Z,0.70
2019-02-04T19:05:01.896Z,0.60
2019-02-04T19:07:30.568Z,0.53
2019-02-04T19:09:59.200Z,0.61
2019-02-04T19:12:28.007Z,0.58
2019-02-04T19:14:57.022Z,0.59
2019-02-04T19:17:25.633Z,0.57
2019-02-04T19:19:54.317Z,0.59
2019-02-04T19:22:22.976Z,0.57
2019-02-04T19:24:51.621Z,0.49
2019-02-04T19:27:20.564Z,0.40
2019-02-04T19:29:49.215Z,0.38
2019-02-04T19:32:18.219Z,0.45
2019-02-04T19:34:46.998Z,0.41
2019-02-04T19:37:16.095Z,0.45
2019-02-04T19:39:45.188Z,0.47
2019-02-04T19:42:13.873Z,0.47
2019-02-04T19:44:42.660Z,0.47
2019-02-04T19:47:11.644Z,0.57
2019-02-04T19:49:40.748Z,0.54
2019-02-04T19:52:09.399Z,0.48
2019-02-04T19:54:38.071Z,0.48
2019-02-04T19:57:06.760Z,0.44
2019-02-04T19:59:35.991Z,0.49
2019-02-04T20:02:05.190Z,0.49
2019-02-04T20:04:33.920Z,0.50
2019-02-04T20:07:03.077Z,0.56
2019-02-04T20:09:31.948Z,0.79
2019-02-04T20:12:00.553Z,0.71
2019-02-04T20:14:29.387Z,0.88
2019-02-04T20:16:58.068Z,0.85
2019-02-04T20:19:26.690Z,0.90
2019-02-04T20:21:55.806Z,0.86
2019-02-04T20:24:32.882Z,1.00
2019-02-04T20:26:53.778Z,0.94
2019-02-04T20:29:22.627Z,0.89
2019-02-04T20:31:51.215Z,0.88
2019-02-04T20:34:20.382Z,1.02
2019-02-04T20:36:49.238Z,0.90
2019-02-04T20:39:17.941Z,0.89
2019-02-04T20:41:46.871Z,1.02
2019-02-04T20:44:19.136Z,0.83
2019-02-04T20:46:46.721Z,0.87
2019-02-04T20:49:15.610Z,0.76
2019-02-04T20:51:44.605Z,0.90
2019-02-04T20:54:19.916Z,0.88
2019-02-04T20:56:42.587Z,0.85
2019-02-04T20:59:11.284Z,0.91
2019-02-04T21:01:40.272Z,1.00
2019-02-04T21:04:08.923Z,1.05
2019-02-04T21:06:37.638Z,0.97
2019-02-04T21:09:06.612Z,0.86
2019-02-04T21:11:35.332Z,1.00
2019-02-04T21:14:04.303Z,0.94
2019-02-04T21:16:32.991Z,0.85
2019-02-04T21:19:01.694Z,0.85
2019-02-04T21:21:30.655Z,0.94
2019-02-04T21:23:59.387Z,0.96
2019-02-04T21:26:28.074Z,0.94
2019-02-04T21:28:57.017Z,1.08
2019-02-04T21:31:26.006Z,1.05
2019-02-04T21:33:54.633Z,1.00
2019-02-04T21:36:23.361Z,0.89
2019-02-04T21:38:52.003Z,0.84
2019-02-04T21:41:20.645Z,0.89
2019-02-04T21:43:49.262Z,0.82
2019-02-04T21:46:17.855Z,0.94
2019-02-04T21:48:46.796Z,0.88
2019-02-04T21:51:15.402Z,0.96
2019-02-04T21:53:44.030Z,0.97
2019-02-04T21:56:12.666Z,0.88
2019-02-04T21:58:41.297Z,0.91
2019-02-04T22:01:09.965Z,0.84
2019-02-04T22:03:38.586Z,0.78
2019-02-04T22:06:07.181Z,0.76
2019-02-04T22:08:35.853Z,0.87
2019-02-04T22:11:04.749Z,0.74
2019-02-04T22:13:33.361Z,0.65
2019-02-04T22:16:02.317Z,0.69
2019-02-04T22:18:30.932Z,0.71
2019-02-04T22:20:59.548Z,0.70
2019-02-04T22:23:28.591Z,0.79
2019-02-04T22:25:57.480Z,0.75
2019-02-04T22:28:26.081Z,0.71
2019-02-04T22:30:54.677Z,0.56
2019-02-04T22:33:23.307Z,0.65
2019-02-04T22:35:52.200Z,0.47
2019-02-04T22:38:20.800Z,0.50
2019-02-04T22:40:49.399Z,0.52
2019-02-04T22:43:18.010Z,0.55
2019-02-04T22:45:46.600Z,0.60
2019-02-04T22:48:15.219Z,0.55
2019-02-04T22:50:44.092Z,0.52
2019-02-04T22:53:12.723Z,0.49
2019-02-04T22:55:41.332Z,0.43
2019-02-04T22:58:09.965Z,0.74
2019-02-04T23:03:32.488Z,0.56
2019-02-04T23:06:01.090Z,0.60
2019-02-04T23:08:30.104Z,0.57
2019-02-04T23:10:58.713Z,0.62
2019-02-04T23:13:27.654Z,0.59
2019-02-04T23:15:56.533Z,0.57
2019-02-04T23:18:25.526Z,0.64
2019-02-04T23:20:54.415Z,0.64
2019-02-04T23:23:23.049Z,0.77
2019-02-04T23:25:51.986Z,0.72
2019-02-04T23:28:20.610Z,0.65
2019-02-04T23:30:49.213Z,0.71
2019-02-04T23:33:17.837Z,0.68
2019-02-04T23:35:46.440Z,0.62
2019-02-04T23:38:15.074Z,0.61
2019-02-04T23:40:43.688Z,0.63
2019-02-04T23:43:12.572Z,0.66
2019-02-04T23:45:41.171Z,0.84
2019-02-04T23:48:09.793Z,0.79
2019-02-04T23:50:38.418Z,0.73
2019-02-04T23:53:07.023Z,0.79
2019-02-04T23:55:35.627Z,0.84
2019-02-04T23:58:04.255Z,0.72
